createdAt,value
2018-09-05T00:00:43.611Z,0
2018-09-05T00:01:44.976Z,0
2018-09-05T00:02:46.335Z,0
2018-09-05T00:03:47.691Z,0
2018-09-05T00:04:49.061Z,0
2018-09-05T00:05:50.421Z,0
2018-09-05T00:06:51.777Z,0
2018-09-05T00:07:53.137Z,0
2018-09-05T00:08:54.503Z,0
2018-09-05T00:09:55.874Z,0
2018-09-05T00:10:57.238Z,0
2018-09-05T00:11:58.597Z,0
2018-09-05T00:12:59.973Z,0
2018-09-05T00:14:01.324Z,0
2018-09-05T00:15:02.674Z,0
2018-09-05T00:16:04.049Z,0
2018-09-05T00:17:05.412Z,0
2018-09-05T00:18:06.786Z,0
2018-09-05T00:19:08.143Z,0
2018-09-05T00:20:09.518Z,0
2018-09-05T00:21:10.882Z,0
2018-09-05T00:22:12.243Z,0
2018-09-05T00:23:13.604Z,0
2018-09-05T00:24:14.962Z,0
2018-09-05T00:25:16.323Z,0
2018-09-05T00:26:17.681Z,0
2018-09-05T00:27:19.044Z,0
2018-09-05T00:28:20.409Z,0
2018-09-05T00:29:21.767Z,0
2018-09-05T00:30:23.127Z,0
2018-09-05T00:31:24.493Z,0
2018-09-05T00:32:26.734Z,0
2018-09-05T00:33:28.092Z,0
2018-09-05T00:34:29.457Z,0
2018-09-05T00:35:30.812Z,0
2018-09-05T00:36:32.177Z,0
2018-09-05T00:37:33.554Z,0
2018-09-05T00:38:34.903Z,0
2018-09-05T00:39:36.268Z,0
2018-09-05T00:40:37.623Z,0
2018-09-05T00:41:38.992Z,0
2018-09-05T00:42:40.349Z,0
2018-09-05T00:43:41.712Z,0
2018-09-05T00:44:43.087Z,0
2018-09-05T00:45:44.437Z,0
2018-09-05T00:46:45.799Z,0
2018-09-05T00:47:47.189Z,0
2018-09-05T00:48:48.558Z,0
2018-09-05T00:49:49.920Z,0
2018-09-05T00:50:51.287Z,0
2018-09-05T00:51:52.649Z,0
2018-09-05T00:52:54.004Z,0
2018-09-05T00:53:55.364Z,0
2018-09-05T00:54:56.723Z,0
2018-09-05T00:55:58.090Z,0
2018-09-05T00:56:59.457Z,0
2018-09-05T00:58:00.818Z,0
2018-09-05T00:59:02.202Z,0
2018-09-05T01:00:03.561Z,0
2018-09-05T01:01:04.918Z,0
2018-09-05T01:02:06.282Z,0
2018-09-05T01:03:07.636Z,0
2018-09-05T01:04:08.999Z,0
2018-09-05T01:05:10.366Z,0
2018-09-05T01:06:11.727Z,0
2018-09-05T01:07:13.077Z,0
2018-09-05T01:08:14.437Z,0
2018-09-05T01:09:15.792Z,0
2018-09-05T01:10:17.159Z,0
2018-09-05T01:11:18.519Z,0
2018-09-05T01:12:19.877Z,0
2018-09-05T01:13:21.243Z,0
2018-09-05T01:14:22.597Z,0
2018-09-05T01:15:23.964Z,0
2018-09-05T01:16:25.323Z,0
2018-09-05T01:17:26.684Z,0
2018-09-05T01:18:28.039Z,0
2018-09-05T01:19:29.408Z,0
2018-09-05T01:20:30.766Z,0
2018-09-05T01:21:32.119Z,0
2018-09-05T01:22:33.600Z,0
2018-09-05T01:23:34.958Z,0
2018-09-05T01:24:36.335Z,0
2018-09-05T01:25:37.683Z,0
2018-09-05T01:26:39.058Z,0
2018-09-05T01:27:40.414Z,0
2018-09-05T01:28:41.773Z,0
2018-09-05T01:29:43.134Z,0
2018-09-05T01:30:44.484Z,0
2018-09-05T01:31:45.847Z,0
2018-09-05T01:32:47.209Z,0
2018-09-05T01:33:48.564Z,0
2018-09-05T01:34:49.929Z,0
2018-09-05T01:35:51.300Z,0
2018-09-05T01:36:52.663Z,0
2018-09-05T01:37:54.017Z,0
2018-09-05T01:38:56.228Z,0
2018-09-05T01:39:57.588Z,0
2018-09-05T01:40:58.953Z,0
2018-09-05T01:42:00.319Z,0
2018-09-05T01:43:01.680Z,0
2018-09-05T01:44:03.044Z,0
2018-09-05T01:45:04.403Z,0
2018-09-05T01:46:05.763Z,0
2018-09-05T01:47:07.128Z,0
2018-09-05T01:48:08.486Z,0
2018-09-05T01:49:09.860Z,0
2018-09-05T01:50:11.214Z,0
2018-09-05T01:51:12.625Z,0
2018-09-05T01:52:13.925Z,0
2018-09-05T01:53:15.284Z,0
2018-09-05T01:54:16.654Z,0
2018-09-05T01:55:18.010Z,0
2018-09-05T01:56:19.374Z,0
2018-09-05T01:57:20.735Z,0
2018-09-05T01:58:22.099Z,0
2018-09-05T01:59:23.449Z,0
2018-09-05T02:00:24.810Z,0
2018-09-05T02:01:26.169Z,0
2018-09-05T02:02:27.534Z,0
2018-09-05T02:03:28.883Z,0
2018-09-05T02:04:30.253Z,0
2018-09-05T02:05:31.605Z,0
2018-09-05T02:06:32.970Z,0
2018-09-05T02:07:34.334Z,0
2018-09-05T02:08:35.742Z,0
2018-09-05T02:09:37.028Z,0
2018-09-05T02:10:38.393Z,0
2018-09-05T02:11:39.748Z,0
2018-09-05T02:12:41.113Z,0
2018-09-05T02:13:42.473Z,0
2018-09-05T02:14:43.833Z,0
2018-09-05T02:15:45.191Z,0
2018-09-05T02:16:46.545Z,0
2018-09-05T02:17:47.914Z,0
2018-09-05T02:18:49.274Z,0
2018-09-05T02:19:50.645Z,0
2018-09-05T02:20:51.998Z,0
2018-09-05T02:21:53.353Z,0
2018-09-05T02:22:54.719Z,0
2018-09-05T02:23:56.078Z,0
2018-09-05T02:24:57.442Z,0
2018-09-05T02:25:58.807Z,0
2018-09-05T02:27:00.173Z,0
2018-09-05T02:28:01.528Z,0
2018-09-05T02:29:02.897Z,0
2018-09-05T02:30:04.258Z,0
2018-09-05T02:31:05.620Z,0
2018-09-05T02:32:06.988Z,0
2018-09-05T02:33:08.338Z,0
2018-09-05T02:34:09.698Z,0
2018-09-05T02:35:11.049Z,0
2018-09-05T02:36:12.405Z,0
2018-09-05T02:37:13.772Z,0
2018-09-05T02:38:15.130Z,0
2018-09-05T02:39:16.489Z,0
2018-09-05T02:40:17.890Z,0
2018-09-05T02:41:19.208Z,0
2018-09-05T02:42:20.570Z,0
2018-09-05T02:43:21.932Z,0
2018-09-05T02:44:23.298Z,0
2018-09-05T02:45:24.661Z,0
2018-09-05T02:46:26.025Z,0
2018-09-05T02:47:27.379Z,0
2018-09-05T02:48:28.734Z,0
2018-09-05T02:49:30.093Z,0
2018-09-05T02:50:31.455Z,0
2018-09-05T02:51:32.810Z,0
2018-09-05T02:52:34.176Z,0
2018-09-05T02:53:35.534Z,0
2018-09-05T02:54:36.899Z,0
2018-09-05T02:55:38.243Z,0
2018-09-05T02:56:39.608Z,0
2018-09-05T02:57:40.969Z,0
2018-09-05T02:58:42.332Z,0
2018-09-05T02:59:43.697Z,0
2018-09-05T03:00:45.055Z,0
2018-09-05T03:01:46.405Z,0
2018-09-05T03:02:47.760Z,0
2018-09-05T03:03:49.125Z,0
2018-09-05T03:04:50.494Z,0
2018-09-05T03:05:51.854Z,0
2018-09-05T03:06:53.223Z,0
2018-09-05T03:07:54.580Z,0
2018-09-05T03:08:56.748Z,0
2018-09-05T03:09:58.108Z,0
2018-09-05T03:10:59.465Z,0
2018-09-05T03:12:00.815Z,0
2018-09-05T03:13:02.178Z,0
2018-09-05T03:14:03.544Z,0
2018-09-05T03:15:04.895Z,0
2018-09-05T03:16:06.274Z,0
2018-09-05T03:17:07.616Z,0
2018-09-05T03:18:08.985Z,0
2018-09-05T03:19:10.343Z,0
2018-09-05T03:20:11.700Z,0
2018-09-05T03:21:13.061Z,0
2018-09-05T03:22:14.414Z,0
2018-09-05T03:23:15.769Z,0
2018-09-05T03:24:17.135Z,0
2018-09-05T03:25:18.490Z,0
2018-09-05T03:26:19.855Z,0
2018-09-05T03:27:21.220Z,0
2018-09-05T03:28:22.583Z,0
2018-09-05T03:29:23.953Z,0
2018-09-05T03:30:26.114Z,0
2018-09-05T03:31:27.464Z,0
2018-09-05T03:32:28.955Z,0
2018-09-05T03:33:30.144Z,0
2018-09-05T03:34:31.499Z,0
2018-09-05T03:35:32.859Z,0
2018-09-05T03:36:34.219Z,0
2018-09-05T03:37:35.613Z,0
2018-09-05T03:38:36.974Z,0
2018-09-05T03:39:38.329Z,0
2018-09-05T03:40:39.693Z,0
2018-09-05T03:41:41.054Z,0
2018-09-05T03:42:42.414Z,0
2018-09-05T03:43:43.779Z,0
2018-09-05T03:44:45.133Z,0
2018-09-05T03:45:46.485Z,0
2018-09-05T03:46:47.843Z,0
2018-09-05T03:47:49.204Z,0
2018-09-05T03:48:50.554Z,0
2018-09-05T03:49:51.982Z,0
2018-09-05T03:50:54.069Z,0
2018-09-05T03:51:55.429Z,0
2018-09-05T03:52:56.785Z,0
2018-09-05T03:53:58.151Z,0
2018-09-05T03:54:59.500Z,0
2018-09-05T03:56:01.058Z,0
2018-09-05T03:57:02.567Z,0
2018-09-05T03:58:03.896Z,0
2018-09-05T03:59:05.256Z,0
2018-09-05T04:00:06.611Z,0
2018-09-05T04:01:07.961Z,0
2018-09-05T04:02:09.339Z,0
2018-09-05T04:03:10.693Z,0
2018-09-05T04:04:12.052Z,0
2018-09-05T04:05:13.480Z,0
2018-09-05T04:06:14.741Z,0
2018-09-05T04:07:16.087Z,0
2018-09-05T04:08:17.446Z,0
2018-09-05T04:09:18.811Z,0
2018-09-05T04:10:20.178Z,0
2018-09-05T04:11:21.531Z,0
2018-09-05T04:12:22.897Z,0
2018-09-05T04:13:24.250Z,0
2018-09-05T04:14:25.611Z,0
2018-09-05T04:15:26.967Z,0
2018-09-05T04:16:28.326Z,0
2018-09-05T04:17:29.687Z,0
2018-09-05T04:18:31.060Z,0
2018-09-05T04:19:32.424Z,0
2018-09-05T04:20:33.766Z,0
2018-09-05T04:21:35.125Z,0
2018-09-05T04:22:36.488Z,0
2018-09-05T04:23:37.846Z,0
2018-09-05T04:24:39.206Z,0
2018-09-05T04:25:40.569Z,0
2018-09-05T04:26:41.935Z,0
2018-09-05T04:27:43.289Z,0
2018-09-05T04:28:44.651Z,0
2018-09-05T04:29:46.027Z,0
2018-09-05T04:30:47.380Z,0
2018-09-05T04:31:48.730Z,0
2018-09-05T04:32:50.092Z,0
2018-09-05T04:33:51.455Z,0
2018-09-05T04:34:52.805Z,0
2018-09-05T04:35:54.169Z,0
2018-09-05T04:36:56.493Z,0
2018-09-05T04:37:57.855Z,5
2018-09-05T04:38:59.212Z,5
2018-09-05T04:40:00.597Z,5
2018-09-05T04:41:01.949Z,5
2018-09-05T04:42:03.309Z,5
2018-09-05T04:43:04.674Z,5
2018-09-05T04:44:06.025Z,5
2018-09-05T04:45:07.403Z,11
2018-09-05T04:46:08.756Z,11
2018-09-05T04:47:10.119Z,11
2018-09-05T04:48:11.491Z,11
2018-09-05T04:49:12.842Z,16
2018-09-05T04:50:14.200Z,16
2018-09-05T04:51:15.559Z,16
2018-09-05T04:52:16.914Z,16
2018-09-05T04:53:18.279Z,22
2018-09-05T04:54:19.644Z,22
2018-09-05T04:55:21.009Z,22
2018-09-05T04:56:22.375Z,28
2018-09-05T04:57:23.726Z,28
2018-09-05T04:58:25.175Z,33
2018-09-05T04:59:26.431Z,33
2018-09-05T05:00:27.799Z,33
2018-09-05T05:01:29.165Z,39
2018-09-05T05:02:30.526Z,45
2018-09-05T05:03:31.886Z,45
2018-09-05T05:04:33.333Z,50
2018-09-05T05:05:34.699Z,56
2018-09-05T05:06:35.947Z,56
2018-09-05T05:07:37.322Z,61
2018-09-05T05:08:38.675Z,67
2018-09-05T05:09:40.032Z,67
2018-09-05T05:10:41.396Z,73
2018-09-05T05:13:02.079Z,78
2018-09-05T05:14:03.459Z,84
2018-09-05T05:15:04.820Z,90
2018-09-05T05:16:06.195Z,95
2018-09-05T05:17:07.552Z,95
2018-09-05T05:18:08.916Z,101
2018-09-05T05:19:10.286Z,106
2018-09-05T05:20:11.650Z,106
2018-09-05T05:21:13.033Z,112
2018-09-05T05:22:14.392Z,112
2018-09-05T05:23:15.765Z,112
2018-09-05T05:24:17.136Z,118
2018-09-05T05:25:18.492Z,123
2018-09-05T05:26:19.867Z,129
2018-09-05T05:27:21.238Z,129
2018-09-05T05:28:22.596Z,135
2018-09-05T05:29:23.965Z,140
2018-09-05T05:30:25.337Z,146
2018-09-05T05:31:26.711Z,151
2018-09-05T05:32:28.094Z,151
2018-09-05T05:33:29.431Z,157
2018-09-05T05:34:30.817Z,163
2018-09-05T05:35:32.186Z,168
2018-09-05T05:36:33.561Z,174
2018-09-05T05:37:34.910Z,174
2018-09-05T05:38:36.286Z,180
2018-09-05T05:39:37.650Z,185
2018-09-05T05:40:39.021Z,191
2018-09-05T05:41:40.390Z,196
2018-09-05T05:42:41.747Z,196
2018-09-05T05:43:43.117Z,202
2018-09-05T05:44:44.477Z,208
2018-09-05T05:45:45.854Z,213
2018-09-05T05:46:47.221Z,219
2018-09-05T05:47:48.537Z,225
2018-09-05T05:48:49.915Z,230
2018-09-05T05:49:51.290Z,236
2018-09-05T05:50:52.655Z,241
2018-09-05T05:51:54.021Z,247
2018-09-05T05:52:55.390Z,247
2018-09-05T05:53:56.755Z,253
2018-09-05T05:54:58.173Z,264
2018-09-05T05:55:59.487Z,264
2018-09-05T05:57:00.857Z,270
2018-09-05T05:58:02.226Z,275
2018-09-05T05:59:03.606Z,281
2018-09-05T06:00:04.973Z,281
2018-09-05T06:01:06.367Z,286
2018-09-05T06:02:07.671Z,292
2018-09-05T06:03:09.041Z,298
2018-09-05T06:04:10.413Z,298
2018-09-05T06:05:11.811Z,303
2018-09-05T06:06:13.266Z,309
2018-09-05T06:07:14.488Z,315
2018-09-05T06:08:15.850Z,320
2018-09-05T06:09:17.207Z,326
2018-09-05T06:10:18.578Z,331
2018-09-05T06:11:19.942Z,331
2018-09-05T06:12:21.313Z,337
2018-09-05T06:13:22.753Z,348
2018-09-05T06:14:24.072Z,354
2018-09-05T06:15:25.489Z,360
2018-09-05T06:16:26.800Z,365
2018-09-05T06:17:28.211Z,371
2018-09-05T06:18:29.536Z,371
2018-09-05T06:19:30.904Z,376
2018-09-05T06:20:32.278Z,376
2018-09-05T06:21:33.657Z,382
2018-09-05T06:22:35.031Z,388
2018-09-05T06:23:36.395Z,393
2018-09-05T06:24:37.763Z,399
2018-09-05T06:25:39.127Z,405
2018-09-05T06:26:40.500Z,410
2018-09-05T06:27:41.943Z,416
2018-09-05T06:28:43.208Z,416
2018-09-05T06:29:44.571Z,427
2018-09-05T06:30:46.209Z,433
2018-09-05T06:31:47.273Z,438
2018-09-05T06:32:48.647Z,444
2018-09-05T06:33:50.018Z,450
2018-09-05T06:34:51.396Z,455
2018-09-05T06:35:52.762Z,478
2018-09-05T06:36:54.127Z,540
2018-09-05T06:37:55.487Z,562
2018-09-05T06:38:56.857Z,573
2018-09-05T06:39:58.226Z,630
2018-09-05T06:40:59.583Z,658
2018-09-05T06:42:00.964Z,697
2018-09-05T06:43:02.336Z,680
2018-09-05T06:44:03.786Z,680
2018-09-05T06:45:05.196Z,680
2018-09-05T06:46:06.552Z,680
2018-09-05T06:47:07.902Z,691
2018-09-05T06:48:09.298Z,759
2018-09-05T06:49:10.662Z,843
2018-09-05T06:50:12.048Z,883
2018-09-05T06:51:13.477Z,911
2018-09-05T06:52:14.803Z,967
2018-09-05T06:53:16.169Z,967
2018-09-05T06:54:17.542Z,945
2018-09-05T06:55:18.908Z,928
2018-09-05T06:56:20.288Z,933
2018-09-05T06:57:21.664Z,933
2018-09-05T06:58:23.209Z,950
2018-09-05T06:59:24.407Z,950
2018-09-05T07:00:25.806Z,967
2018-09-05T07:01:27.176Z,990
2018-09-05T07:02:28.551Z,1006
2018-09-05T07:03:29.985Z,1012
2018-09-05T07:04:31.272Z,1018
2018-09-05T07:05:32.640Z,1040
2018-09-05T07:06:34.013Z,1051
2018-09-05T07:07:35.446Z,1063
2018-09-05T07:08:36.816Z,1040
2018-09-05T07:09:38.212Z,1040
2018-09-05T07:10:39.592Z,1068
2018-09-05T07:11:40.963Z,1080
2018-09-05T07:12:42.328Z,1085
2018-09-05T07:13:43.707Z,1113
2018-09-05T07:14:45.118Z,1141
2018-09-05T07:15:46.491Z,1147
2018-09-05T07:16:47.868Z,1147
2018-09-05T07:17:49.282Z,1153
2018-09-05T07:18:50.652Z,1164
2018-09-05T07:19:52.013Z,1153
2018-09-05T07:21:05.678Z,1170
2018-09-05T07:21:54.821Z,1175
2018-09-05T07:22:56.148Z,1158
2018-09-05T07:23:57.524Z,1186
2018-09-05T07:24:58.936Z,1209
2018-09-05T07:26:00.270Z,1220
2018-09-05T07:27:01.651Z,1220
2018-09-05T07:28:03.031Z,1226
2018-09-05T07:29:04.403Z,1243
2018-09-05T07:30:05.783Z,1243
2018-09-05T07:31:07.173Z,1248
2018-09-05T07:32:08.591Z,1271
2018-09-05T07:33:09.917Z,1293
2018-09-05T07:34:11.303Z,1321
2018-09-05T07:35:12.678Z,1321
2018-09-05T07:36:14.042Z,1361
2018-09-05T07:37:15.426Z,1350
2018-09-05T07:38:16.818Z,1372
2018-09-05T07:39:18.193Z,1411
2018-09-05T07:40:19.571Z,1434
2018-09-05T07:41:20.961Z,1423
2018-09-05T07:42:22.337Z,1428
2018-09-05T07:43:23.715Z,1451
2018-09-05T07:44:25.095Z,1451
2018-09-05T07:45:26.459Z,1473
2018-09-05T07:46:27.847Z,1490
2018-09-05T07:47:29.222Z,1479
2018-09-05T07:48:30.608Z,1462
2018-09-05T07:49:31.997Z,1473
2018-09-05T07:50:33.397Z,1479
2018-09-05T07:51:34.745Z,1507
2018-09-05T07:52:36.139Z,1518
2018-09-05T07:53:37.509Z,1524
2018-09-05T07:54:38.890Z,1546
2018-09-05T07:55:40.274Z,1580
2018-09-05T07:56:41.641Z,1591
2018-09-05T07:57:43.017Z,1608
2018-09-05T07:58:44.403Z,1614
2018-09-05T07:59:45.788Z,1631
2018-09-05T08:00:47.173Z,1625
2018-09-05T08:01:48.559Z,1614
2018-09-05T08:02:49.972Z,1648
2018-09-05T08:03:51.306Z,1653
2018-09-05T08:04:52.681Z,1698
2018-09-05T08:05:54.056Z,1715
2018-09-05T08:06:55.431Z,1715
2018-09-05T08:07:56.811Z,1749
2018-09-05T08:08:58.185Z,1771
2018-09-05T08:09:59.568Z,1760
2018-09-05T08:11:00.951Z,1766
2018-09-05T08:12:02.330Z,1766
2018-09-05T08:13:03.716Z,1760
2018-09-05T08:14:05.092Z,1766
2018-09-05T08:15:06.477Z,1794
2018-09-05T08:16:07.852Z,1828
2018-09-05T08:17:09.228Z,1811
2018-09-05T08:18:10.641Z,1811
2018-09-05T08:19:11.958Z,1845
2018-09-05T08:20:13.346Z,1833
2018-09-05T08:21:14.721Z,1856
2018-09-05T08:22:16.096Z,1884
2018-09-05T08:23:17.481Z,1890
2018-09-05T08:24:18.931Z,1867
2018-09-05T08:25:20.201Z,1890
2018-09-05T08:26:21.587Z,1906
2018-09-05T08:27:22.966Z,1918
2018-09-05T08:28:24.351Z,1912
2018-09-05T08:29:25.729Z,1906
2018-09-05T08:30:27.122Z,1906
2018-09-05T08:31:28.496Z,1929
2018-09-05T08:32:29.867Z,1963
2018-09-05T08:33:31.251Z,1951
2018-09-05T08:34:32.643Z,1951
2018-09-05T08:35:34.197Z,1963
2018-09-05T08:36:35.576Z,1946
2018-09-05T08:37:36.919Z,1963
2018-09-05T08:38:38.253Z,1974
2018-09-05T08:39:39.573Z,1957
2018-09-05T08:40:40.951Z,1951
2018-09-05T08:41:42.411Z,1963
2018-09-05T08:42:43.773Z,1957
2018-09-05T08:43:45.345Z,1991
2018-09-05T08:44:46.727Z,1996
2018-09-05T08:45:48.038Z,2041
2018-09-05T08:46:49.330Z,2053
2018-09-05T08:47:50.728Z,2064
2018-09-05T08:48:51.972Z,2064
2018-09-05T08:49:53.332Z,2070
2018-09-05T08:50:54.740Z,2075
2018-09-05T08:51:56.122Z,2081
2018-09-05T08:52:57.511Z,2115
2018-09-05T08:53:58.881Z,2131
2018-09-05T08:55:00.269Z,2137
2018-09-05T08:56:01.651Z,2154
2018-09-05T08:57:03.091Z,2165
2018-09-05T08:58:04.419Z,2221
2018-09-05T08:59:05.833Z,2244
2018-09-05T09:00:07.184Z,2255
2018-09-05T09:01:08.554Z,2261
2018-09-05T09:02:09.937Z,2238
2018-09-05T09:03:11.313Z,2227
2018-09-05T09:04:12.701Z,2261
2018-09-05T09:05:14.086Z,2289
2018-09-05T09:06:15.459Z,2261
2018-09-05T09:07:16.842Z,2250
2018-09-05T09:08:18.218Z,2311
2018-09-05T09:09:19.612Z,2323
2018-09-05T09:10:20.994Z,2306
2018-09-05T09:11:22.394Z,2261
2018-09-05T09:12:23.775Z,2283
2018-09-05T09:13:25.158Z,2300
2018-09-05T09:14:26.534Z,2311
2018-09-05T09:15:27.926Z,2345
2018-09-05T09:16:29.309Z,2334
2018-09-05T09:17:30.685Z,2323
2018-09-05T09:18:32.068Z,2306
2018-09-05T09:19:33.461Z,2311
2018-09-05T09:20:34.853Z,2356
2018-09-05T09:21:36.242Z,2340
2018-09-05T09:22:37.624Z,2362
2018-09-05T09:23:39.015Z,2362
2018-09-05T09:24:40.403Z,2334
2018-09-05T09:25:41.790Z,2413
2018-09-05T09:26:43.177Z,2424
2018-09-05T09:27:44.565Z,2385
2018-09-05T09:28:45.963Z,2362
2018-09-05T09:29:47.343Z,2401
2018-09-05T09:30:48.737Z,2452
2018-09-05T09:31:50.113Z,2430
2018-09-05T09:32:51.500Z,2458
2018-09-05T09:33:52.907Z,2401
2018-09-05T09:34:54.290Z,2385
2018-09-05T09:35:55.685Z,2407
2018-09-05T09:36:57.055Z,2458
2018-09-05T09:37:58.445Z,2463
2018-09-05T09:38:59.826Z,2446
2018-09-05T09:40:01.220Z,2469
2018-09-05T09:41:02.607Z,2475
2018-09-05T09:42:04.000Z,2446
2018-09-05T09:43:05.387Z,2491
2018-09-05T09:44:06.758Z,2508
2018-09-05T09:45:08.155Z,2565
2018-09-05T09:46:09.544Z,2553
2018-09-05T09:47:10.924Z,2531
2018-09-05T09:48:12.313Z,2491
2018-09-05T09:49:13.705Z,2430
2018-09-05T09:50:15.088Z,2452
2018-09-05T09:51:16.483Z,2491
2018-09-05T09:52:17.872Z,2508
2018-09-05T09:53:19.268Z,2508
2018-09-05T09:54:20.649Z,2536
2018-09-05T09:55:22.025Z,2536
2018-09-05T09:56:23.404Z,2610
2018-09-05T09:57:24.785Z,2587
2018-09-05T09:58:26.171Z,2587
2018-09-05T09:59:27.575Z,2638
2018-09-05T10:00:28.958Z,2553
2018-09-05T10:01:30.342Z,2475
2018-09-05T10:02:31.738Z,2581
2018-09-05T10:03:33.269Z,2587
2018-09-05T10:04:34.520Z,2559
2018-09-05T10:05:35.904Z,2520
2018-09-05T10:06:37.318Z,2570
2018-09-05T10:07:38.702Z,2615
2018-09-05T10:08:40.095Z,2553
2018-09-05T10:09:41.563Z,2559
2018-09-05T10:10:42.963Z,2587
2018-09-05T10:11:44.182Z,2581
2018-09-05T10:12:45.604Z,2565
2018-09-05T10:13:46.980Z,2671
2018-09-05T10:14:48.382Z,2694
2018-09-05T10:15:49.789Z,2700
2018-09-05T10:16:51.178Z,2683
2018-09-05T10:17:52.575Z,2632
2018-09-05T10:18:53.949Z,2581
2018-09-05T10:19:55.355Z,933
2018-09-05T10:20:56.748Z,1035
2018-09-05T10:21:58.135Z,2565
2018-09-05T10:22:59.527Z,2671
2018-09-05T10:24:00.894Z,2694
2018-09-05T10:25:02.288Z,2666
2018-09-05T10:26:03.689Z,2621
2018-09-05T10:27:05.081Z,888
2018-09-05T10:28:06.480Z,877
2018-09-05T10:29:07.873Z,860
2018-09-05T10:30:09.269Z,888
2018-09-05T10:31:10.661Z,1063
2018-09-05T10:32:12.063Z,2750
2018-09-05T10:33:13.479Z,2711
2018-09-05T10:34:14.879Z,1198
2018-09-05T10:35:16.259Z,1040
2018-09-05T10:36:17.668Z,832
2018-09-05T10:37:19.059Z,781
2018-09-05T10:38:20.468Z,855
2018-09-05T10:39:21.890Z,1035
2018-09-05T10:40:23.293Z,2390
2018-09-05T10:41:24.669Z,2649
2018-09-05T10:42:26.603Z,950
2018-09-05T10:43:28.029Z,1316
2018-09-05T10:44:29.419Z,2047
2018-09-05T10:45:30.805Z,810
2018-09-05T10:46:32.196Z,787
2018-09-05T10:47:33.580Z,832
2018-09-05T10:48:34.965Z,1035
2018-09-05T10:49:36.343Z,2711
2018-09-05T10:50:37.723Z,2081
2018-09-05T10:51:39.133Z,2317
2018-09-05T10:52:40.491Z,2002
2018-09-05T10:53:41.900Z,2688
2018-09-05T10:54:43.284Z,2570
2018-09-05T10:55:44.669Z,1321
2018-09-05T10:56:46.053Z,1164
2018-09-05T10:57:47.425Z,894
2018-09-05T10:58:48.815Z,877
2018-09-05T10:59:50.200Z,1333
2018-09-05T11:00:51.583Z,894
2018-09-05T11:01:52.966Z,793
2018-09-05T11:02:54.354Z,832
2018-09-05T11:03:55.727Z,1445
2018-09-05T11:04:57.115Z,1895
2018-09-05T11:05:58.505Z,973
2018-09-05T11:06:59.889Z,2778
2018-09-05T11:08:01.273Z,2773
2018-09-05T11:09:02.661Z,2210
2018-09-05T11:10:04.040Z,1310
2018-09-05T11:11:05.433Z,2553
2018-09-05T11:12:17.822Z,2593
2018-09-05T11:13:19.166Z,1012
2018-09-05T11:14:20.563Z,1018
2018-09-05T11:15:21.944Z,1023
2018-09-05T11:16:23.436Z,1068
2018-09-05T11:17:24.944Z,2739
2018-09-05T11:18:26.330Z,2694
2018-09-05T11:19:27.711Z,2497
2018-09-05T11:20:29.095Z,1327
2018-09-05T11:21:30.481Z,933
2018-09-05T11:22:31.984Z,798
2018-09-05T11:23:33.371Z,832
2018-09-05T11:24:34.759Z,2638
2018-09-05T11:25:36.148Z,2581
2018-09-05T11:26:37.535Z,866
2018-09-05T11:27:38.937Z,978
2018-09-05T11:28:40.306Z,2379
2018-09-05T11:29:41.695Z,900
2018-09-05T11:30:43.191Z,1046
2018-09-05T11:31:44.575Z,1732
2018-09-05T11:32:45.970Z,2705
2018-09-05T11:33:47.354Z,961
2018-09-05T11:34:48.751Z,911
2018-09-05T11:35:50.125Z,1479
2018-09-05T11:36:51.529Z,2784
2018-09-05T11:37:52.895Z,2683
2018-09-05T11:38:54.266Z,2728
2018-09-05T11:39:55.660Z,2767
2018-09-05T11:40:57.034Z,2745
2018-09-05T11:41:58.428Z,2655
2018-09-05T11:42:59.819Z,2458
2018-09-05T11:44:01.205Z,2570
2018-09-05T11:45:02.591Z,2711
2018-09-05T11:46:03.969Z,2756
2018-09-05T11:47:05.355Z,2716
2018-09-05T11:48:06.746Z,2188
2018-09-05T11:49:08.140Z,2750
2018-09-05T11:50:09.528Z,2823
2018-09-05T11:51:10.918Z,1260
2018-09-05T11:52:12.294Z,2711
2018-09-05T11:53:13.682Z,2880
2018-09-05T11:54:15.082Z,2818
2018-09-05T11:55:16.468Z,2761
2018-09-05T11:56:17.860Z,2801
2018-09-05T11:57:19.257Z,2818
2018-09-05T11:58:20.603Z,2756
2018-09-05T11:59:21.991Z,2767
2018-09-05T12:00:23.396Z,2806
2018-09-05T12:01:24.765Z,2790
2018-09-05T12:02:26.166Z,2761
2018-09-05T12:03:27.553Z,2773
2018-09-05T12:04:28.944Z,2981
2018-09-05T12:05:30.324Z,3071
2018-09-05T12:06:31.725Z,2806
2018-09-05T12:07:33.108Z,1276
2018-09-05T12:08:34.490Z,1226
2018-09-05T12:09:35.884Z,1260
2018-09-05T12:10:37.279Z,1788
2018-09-05T12:11:38.674Z,1783
2018-09-05T12:12:40.064Z,1783
2018-09-05T12:13:41.459Z,1783
2018-09-05T12:14:42.844Z,1771
2018-09-05T12:15:44.236Z,1800
2018-09-05T12:16:45.621Z,1805
2018-09-05T12:17:47.015Z,1811
2018-09-05T12:18:48.404Z,1473
2018-09-05T12:19:50.154Z,1895
2018-09-05T12:20:51.569Z,1867
2018-09-05T12:21:52.956Z,1873
2018-09-05T12:22:54.339Z,1873
2018-09-05T12:23:55.725Z,1878
2018-09-05T12:24:57.106Z,1873
2018-09-05T12:25:58.494Z,1873
2018-09-05T12:26:59.880Z,1845
2018-09-05T12:28:01.271Z,1867
2018-09-05T12:29:02.666Z,1878
2018-09-05T12:30:04.054Z,1856
2018-09-05T12:31:05.439Z,1788
2018-09-05T12:32:06.851Z,1012
2018-09-05T12:33:08.240Z,967
2018-09-05T12:34:09.630Z,978
2018-09-05T12:35:11.021Z,1231
2018-09-05T12:36:12.403Z,1760
2018-09-05T12:37:13.786Z,1203
2018-09-05T12:38:15.238Z,1445
2018-09-05T12:39:16.575Z,1749
2018-09-05T12:40:17.964Z,1681
2018-09-05T12:41:19.355Z,1198
2018-09-05T12:42:20.738Z,1209
2018-09-05T12:43:22.136Z,1158
2018-09-05T12:44:23.524Z,1546
2018-09-05T12:45:24.899Z,933
2018-09-05T12:46:26.281Z,736
2018-09-05T12:47:27.795Z,691
2018-09-05T12:48:29.176Z,675
2018-09-05T12:49:30.570Z,663
2018-09-05T12:50:31.945Z,686
2018-09-05T12:51:33.326Z,1068
2018-09-05T12:52:34.704Z,804
2018-09-05T12:53:38.640Z,804
2018-09-05T12:54:40.020Z,821
2018-09-05T12:55:41.441Z,804
2018-09-05T12:56:42.820Z,781
2018-09-05T12:57:44.208Z,765
2018-09-05T12:58:45.581Z,781
2018-09-05T12:59:47.040Z,815
2018-09-05T13:00:48.426Z,961
2018-09-05T13:01:49.819Z,1108
2018-09-05T13:02:51.199Z,1608
2018-09-05T13:03:52.589Z,1569
2018-09-05T13:04:54.019Z,1541
2018-09-05T13:05:55.341Z,1198
2018-09-05T13:06:56.725Z,1305
2018-09-05T13:07:58.094Z,1496
2018-09-05T13:08:59.481Z,1226
2018-09-05T13:10:08.049Z,1530
2018-09-05T13:11:09.445Z,1029
2018-09-05T13:12:47.843Z,1395
2018-09-05T13:15:07.906Z,1417
2018-09-05T13:16:48.391Z,1451
2018-09-05T13:18:18.161Z,922
2018-09-05T13:19:46.747Z,1468
2018-09-05T13:21:18.148Z,1912
2018-09-05T13:22:26.195Z,1417
2018-09-05T13:23:50.090Z,1648
2018-09-05T13:25:18.159Z,1822
2018-09-05T13:26:19.986Z,1023
2018-09-05T13:29:09.888Z,1023
2018-09-05T13:30:11.269Z,753
2018-09-05T13:31:12.656Z,720
2018-09-05T13:32:14.581Z,675
2018-09-05T13:33:15.936Z,652
2018-09-05T13:34:17.324Z,635
2018-09-05T13:35:18.718Z,630
2018-09-05T13:36:20.781Z,663
2018-09-05T13:37:22.575Z,1411
2018-09-05T13:38:48.482Z,652
2018-09-05T13:39:49.861Z,630
2018-09-05T13:41:07.965Z,1029
2018-09-05T13:42:09.830Z,596
2018-09-05T13:43:11.219Z,579
2018-09-05T13:44:18.776Z,590
2018-09-05T13:45:21.227Z,590
2018-09-05T13:46:23.016Z,613
2018-09-05T13:47:24.716Z,596
2018-09-05T13:48:48.001Z,590
2018-09-05T13:50:25.871Z,579
2018-09-05T13:51:50.504Z,568
2018-09-05T13:52:51.851Z,568
2018-09-05T13:53:55.290Z,562
2018-09-05T13:54:56.680Z,545
2018-09-05T13:55:58.234Z,523
2018-09-05T13:56:59.615Z,500
2018-09-05T13:58:01.495Z,483
2018-09-05T13:59:06.085Z,472
2018-09-05T14:00:09.577Z,455
2018-09-05T14:01:18.121Z,450
2018-09-05T14:02:24.343Z,444
2018-09-05T14:03:25.686Z,450
2018-09-05T14:04:27.061Z,461
2018-09-05T14:05:28.445Z,483
2018-09-05T14:06:29.821Z,500
2018-09-05T14:07:31.196Z,506
2018-09-05T14:08:32.572Z,506
2018-09-05T14:09:33.940Z,506
2018-09-05T14:10:35.321Z,511
2018-09-05T14:11:36.695Z,528
2018-09-05T14:12:38.077Z,562
2018-09-05T14:13:39.559Z,1091
2018-09-05T14:14:40.792Z,1383
2018-09-05T14:15:42.167Z,1428
2018-09-05T14:16:43.541Z,1451
2018-09-05T14:17:44.921Z,1456
2018-09-05T14:18:46.301Z,1473
2018-09-05T14:19:47.677Z,1462
2018-09-05T14:20:49.050Z,1490
2018-09-05T14:21:51.074Z,1530
2018-09-05T14:22:52.479Z,1535
2018-09-05T14:23:53.851Z,1513
2018-09-05T14:24:55.237Z,1541